sensor_id;sensor_type;location;lat;lon;timestamp;pressure;altitude;pressure_sealevel;temperature;humidity
27805;BME280;15183;51.350;11.102;2022-08-18T00:02:19;99515.13;;;23.05;44.62
27805;BME280;15183;51.350;11.102;2022-08-18T00:04:46;99519.22;;;23.03;44.29
27805;BME280;15183;51.350;11.102;2022-08-18T00:07:23;99496.50;;;22.86;44.26
27805;BME280;15183;51.350;11.102;2022-08-18T00:09:51;99505.56;;;22.90;44.53
27805;BME280;15183;51.350;11.102;2022-08-18T00:12:25;99506.50;;;22.86;44.98
27805;BME280;15183;51.350;11.102;2022-08-18T00:14:54;99498.56;;;22.80;44.54
27805;BME280;15183;51.350;11.102;2022-08-18T00:17:21;99492.84;;;22.73;44.87
27805;BME280;15183;51.350;11.102;2022-08-18T00:19:48;99488.84;;;22.62;44.94
27805;BME280;15183;51.350;11.102;2022-08-18T00:22:19;99505.69;;;22.59;45.63
27805;BME280;15183;51.350;11.102;2022-08-18T00:24:53;99496.75;;;22.49;45.56
27805;BME280;15183;51.350;11.102;2022-08-18T00:27:27;99495.91;;;22.40;45.24
27805;BME280;15183;51.350;11.102;2022-08-18T00:30:00;99473.47;;;22.22;45.23
27805;BME280;15183;51.350;11.102;2022-08-18T00:32:42;99473.16;;;22.23;45.38
27805;BME280;15183;51.350;11.102;2022-08-18T00:35:27;99481.72;;;22.17;45.88
27805;BME280;15183;51.350;11.102;2022-08-18T00:37:56;99492.81;;;22.15;46.00
27805;BME280;15183;51.350;11.102;2022-08-18T00:40:30;99471.47;;;21.96;45.64
27805;BME280;15183;51.350;11.102;2022-08-18T00:43:01;99500.41;;;22.04;45.74
27805;BME280;15183;51.350;11.102;2022-08-18T00:45:37;99485.56;;;21.93;46.07
27805;BME280;15183;51.350;11.102;2022-08-18T00:48:07;99496.25;;;21.98;45.92
27805;BME280;15183;51.350;11.102;2022-08-18T00:53:49;99474.03;;;21.69;46.19
27805;BME280;15183;51.350;11.102;2022-08-18T00:56:26;99491.09;;;21.79;46.28
27805;BME280;15183;51.350;11.102;2022-08-18T00:59:06;99502.94;;;21.78;46.97
27805;BME280;15183;51.350;11.102;2022-08-18T01:01:34;99512.00;;;21.73;46.64
27805;BME280;15183;51.350;11.102;2022-08-18T01:04:19;99503.94;;;21.59;47.08
27805;BME280;15183;51.350;11.102;2022-08-18T01:06:57;99507.88;;;21.53;47.22
27805;BME280;15183;51.350;11.102;2022-08-18T01:09:26;99522.75;;;21.50;47.26
27805;BME280;15183;51.350;11.102;2022-08-18T01:11:52;99518.28;;;21.46;47.26
27805;BME280;15183;51.350;11.102;2022-08-18T01:14:19;99519.06;;;21.46;47.80
27805;BME280;15183;51.350;11.102;2022-08-18T01:16:48;99513.31;;;21.39;47.49
27805;BME280;15183;51.350;11.102;2022-08-18T01:19:35;99526.81;;;21.39;47.39
27805;BME280;15183;51.350;11.102;2022-08-18T01:25:17;99523.63;;;21.37;48.08
27805;BME280;15183;51.350;11.102;2022-08-18T01:28:04;99536.84;;;21.47;48.27
27805;BME280;15183;51.350;11.102;2022-08-18T01:30:43;99531.66;;;21.51;48.14
27805;BME280;15183;51.350;11.102;2022-08-18T01:33:13;99525.94;;;21.52;48.21
27805;BME280;15183;51.350;11.102;2022-08-18T01:35:43;99514.66;;;21.50;47.97
27805;BME280;15183;51.350;11.102;2022-08-18T01:38:17;99515.16;;;21.52;48.09
27805;BME280;15183;51.350;11.102;2022-08-18T01:40:45;99516.03;;;21.62;47.92
27805;BME280;15183;51.350;11.102;2022-08-18T01:43:12;99522.09;;;21.67;48.25
27805;BME280;15183;51.350;11.102;2022-08-18T01:45:40;99521.31;;;21.67;47.68
27805;BME280;15183;51.350;11.102;2022-08-18T01:48:07;99527.34;;;21.73;48.42
27805;BME280;15183;51.350;11.102;2022-08-18T01:50:35;99527.06;;;21.74;48.24
27805;BME280;15183;51.350;11.102;2022-08-18T01:53:07;99518.47;;;21.72;48.21
27805;BME280;15183;51.350;11.102;2022-08-18T01:55:40;99519.47;;;21.76;48.25
27805;BME280;15183;51.350;11.102;2022-08-18T01:58:10;99517.44;;;21.82;47.81
27805;BME280;15183;51.350;11.102;2022-08-18T02:00:37;99518.69;;;21.85;48.17
27805;BME280;15183;51.350;11.102;2022-08-18T02:03:07;99523.19;;;21.89;48.33
27805;BME280;15183;51.350;11.102;2022-08-18T02:05:45;99516.19;;;21.88;48.15
27805;BME280;15183;51.350;11.102;2022-08-18T02:08:14;99514.75;;;21.91;47.88
27805;BME280;15183;51.350;11.102;2022-08-18T02:10:41;99506.50;;;21.87;48.10
27805;BME280;15183;51.350;11.102;2022-08-18T02:13:08;99499.81;;;21.85;48.13
27805;BME280;15183;51.350;11.102;2022-08-18T02:15:34;99517.59;;;21.86;48.52
27805;BME280;15183;51.350;11.102;2022-08-18T02:18:01;99504.25;;;21.80;48.57
27805;BME280;15183;51.350;11.102;2022-08-18T02:20:27;99514.13;;;21.85;48.41
27805;BME280;15183;51.350;11.102;2022-08-18T02:22:54;99518.69;;;21.85;48.27
27805;BME280;15183;51.350;11.102;2022-08-18T02:25:21;99501.88;;;21.79;48.23
27805;BME280;15183;51.350;11.102;2022-08-18T02:27:48;99511.41;;;21.85;48.64
27805;BME280;15183;51.350;11.102;2022-08-18T02:30:17;99508.25;;;21.83;48.23
27805;BME280;15183;51.350;11.102;2022-08-18T02:32:44;99514.41;;;21.83;48.75
27805;BME280;15183;51.350;11.102;2022-08-18T02:35:11;99519.03;;;21.83;48.13
27805;BME280;15183;51.350;11.102;2022-08-18T02:37:41;99522.50;;;21.83;48.30
27805;BME280;15183;51.350;11.102;2022-08-18T02:40:09;99515.53;;;21.82;48.80
27805;BME280;15183;51.350;11.102;2022-08-18T02:42:37;99505.16;;;21.76;48.45
27805;BME280;15183;51.350;11.102;2022-08-18T02:45:05;99511.03;;;21.78;48.24
27805;BME280;15183;51.350;11.102;2022-08-18T02:47:31;99502.47;;;21.76;48.92
27805;BME280;15183;51.350;11.102;2022-08-18T02:49:58;99506.75;;;21.77;48.77
27805;BME280;15183;51.350;11.102;2022-08-18T02:52:24;99492.13;;;21.69;48.35
27805;BME280;15183;51.350;11.102;2022-08-18T02:54:59;99509.66;;;21.80;48.91
27805;BME280;15183;51.350;11.102;2022-08-18T02:57:29;99501.25;;;21.82;48.83
27805;BME280;15183;51.350;11.102;2022-08-18T02:59:58;99506.19;;;21.89;48.54
27805;BME280;15183;51.350;11.102;2022-08-18T03:02:25;99492.69;;;21.89;48.74
27805;BME280;15183;51.350;11.102;2022-08-18T03:04:51;99514.53;;;22.01;48.33
27805;BME280;15183;51.350;11.102;2022-08-18T03:07:18;99511.50;;;22.03;48.52
27805;BME280;15183;51.350;11.102;2022-08-18T03:09:44;99512.59;;;22.02;48.49
27805;BME280;15183;51.350;11.102;2022-08-18T03:12:10;99498.16;;;21.97;48.76
27805;BME280;15183;51.350;11.102;2022-08-18T03:14:37;99483.50;;;21.90;49.20
27805;BME280;15183;51.350;11.102;2022-08-18T03:17:07;99497.84;;;21.99;48.66
27805;BME280;15183;51.350;11.102;2022-08-18T03:19:34;99506.44;;;22.01;48.63
27805;BME280;15183;51.350;11.102;2022-08-18T03:22:01;99513.28;;;22.07;48.92
27805;BME280;15183;51.350;11.102;2022-08-18T03:24:27;99506.75;;;22.08;48.90
27805;BME280;15183;51.350;11.102;2022-08-18T03:26:55;99491.66;;;21.98;49.40
27805;BME280;15183;51.350;11.102;2022-08-18T03:29:23;99503.25;;;22.08;49.18
27805;BME280;15183;51.350;11.102;2022-08-18T03:31:50;99501.41;;;22.17;49.39
27805;BME280;15183;51.350;11.102;2022-08-18T03:34:19;99484.06;;;22.09;49.68
27805;BME280;15183;51.350;11.102;2022-08-18T03:36:47;99498.09;;;22.20;49.15
27805;BME280;15183;51.350;11.102;2022-08-18T03:39:16;99498.56;;;22.31;49.51
27805;BME280;15183;51.350;11.102;2022-08-18T03:41:44;99483.16;;;22.23;49.33
27805;BME280;15183;51.350;11.102;2022-08-18T03:44:13;99490.81;;;22.30;49.29
27805;BME280;15183;51.350;11.102;2022-08-18T03:46:44;99498.59;;;22.40;49.58
27805;BME280;15183;51.350;11.102;2022-08-18T03:49:11;99494.16;;;22.44;49.27
27805;BME280;15183;51.350;11.102;2022-08-18T03:51:42;99489.41;;;22.41;49.51
27805;BME280;15183;51.350;11.102;2022-08-18T03:54:09;99495.97;;;22.49;48.89
27805;BME280;15183;51.350;11.102;2022-08-18T03:56:39;99484.84;;;22.50;49.22
27805;BME280;15183;51.350;11.102;2022-08-18T03:59:27;99496.78;;;22.58;49.46
27805;BME280;15183;51.350;11.102;2022-08-18T04:01:55;99488.19;;;22.56;49.21
27805;BME280;15183;51.350;11.102;2022-08-18T04:04:25;99496.16;;;22.61;49.66
27805;BME280;15183;51.350;11.102;2022-08-18T04:07:00;99504.09;;;22.66;49.35
27805;BME280;15183;51.350;11.102;2022-08-18T04:09:31;99501.88;;;22.68;49.32
27805;BME280;15183;51.350;11.102;2022-08-18T04:12:05;99499.66;;;22.70;49.72
27805;BME280;15183;51.350;11.102;2022-08-18T04:14:39;99495.53;;;22.73;49.49
27805;BME280;15183;51.350;11.102;2022-08-18T04:17:08;99509.22;;;22.77;49.44
27805;BME280;15183;51.350;11.102;2022-08-18T04:19:35;99495.84;;;22.72;49.62
27805;BME280;15183;51.350;11.102;2022-08-18T04:22:04;99506.34;;;22.82;49.59
27805;BME280;15183;51.350;11.102;2022-08-18T04:24:32;99506.69;;;22.89;50.04
27805;BME280;15183;51.350;11.102;2022-08-18T04:27:02;99516.03;;;22.92;50.44
27805;BME280;15183;51.350;11.102;2022-08-18T04:29:30;99497.75;;;22.89;49.94
27805;BME280;15183;51.350;11.102;2022-08-18T04:32:01;99517.16;;;22.99;49.92
27805;BME280;15183;51.350;11.102;2022-08-18T04:34:31;99512.72;;;23.04;50.37
27805;BME280;15183;51.350;11.102;2022-08-18T04:36:59;99509.72;;;23.05;50.36
27805;BME280;15183;51.350;11.102;2022-08-18T04:39:25;99522.59;;;23.08;50.11
27805;BME280;15183;51.350;11.102;2022-08-18T04:41:52;99530.53;;;23.13;50.07
27805;BME280;15183;51.350;11.102;2022-08-18T04:44:19;99525.94;;;23.14;50.60
27805;BME280;15183;51.350;11.102;2022-08-18T04:46:50;99523.88;;;23.11;50.05
27805;BME280;15183;51.350;11.102;2022-08-18T04:49:22;99524.47;;;23.17;50.66
27805;BME280;15183;51.350;11.102;2022-08-18T04:51:52;99529.88;;;23.17;50.45
27805;BME280;15183;51.350;11.102;2022-08-18T04:54:39;99536.72;;;23.23;50.23
27805;BME280;15183;51.350;11.102;2022-08-18T04:57:16;99532.28;;;23.18;50.47
27805;BME280;15183;51.350;11.102;2022-08-18T04:59:46;99539.63;;;23.26;50.92
27805;BME280;15183;51.350;11.102;2022-08-18T05:02:14;99548.22;;;23.29;51.02
27805;BME280;15183;51.350;11.102;2022-08-18T05:04:42;99547.91;;;23.30;50.90
27805;BME280;15183;51.350;11.102;2022-08-18T05:07:15;99555.03;;;23.35;50.93
27805;BME280;15183;51.350;11.102;2022-08-18T05:09:42;99537.88;;;23.39;51.35
27805;BME280;15183;51.350;11.102;2022-08-18T05:12:11;99555.03;;;23.44;51.41
27805;BME280;15183;51.350;11.102;2022-08-18T05:14:41;99544.53;;;23.42;51.06
27805;BME280;15183;51.350;11.102;2022-08-18T05:17:11;99549.78;;;23.47;51.17
27805;BME280;15183;51.350;11.102;2022-08-18T05:19:37;99556.16;;;23.51;51.37
27805;BME280;15183;51.350;11.102;2022-08-18T05:22:04;99563.13;;;23.61;50.92
27805;BME280;15183;51.350;11.102;2022-08-18T05:24:32;99565.19;;;23.64;50.89
27805;BME280;15183;51.350;11.102;2022-08-18T05:27:01;99569.81;;;23.64;51.43
27805;BME280;15183;51.350;11.102;2022-08-18T05:29:29;99570.94;;;23.72;51.04
27805;BME280;15183;51.350;11.102;2022-08-18T05:32:03;99571.22;;;23.79;51.08
27805;BME280;15183;51.350;11.102;2022-08-18T05:34:34;99559.13;;;23.76;51.28
27805;BME280;15183;51.350;11.102;2022-08-18T05:37:23;99560.72;;;23.86;51.15
27805;BME280;15183;51.350;11.102;2022-08-18T05:40:01;99558.63;;;23.92;51.54
27805;BME280;15183;51.350;11.102;2022-08-18T05:42:36;99554.00;;;23.92;51.43
27805;BME280;15183;51.350;11.102;2022-08-18T05:45:12;99527.44;;;23.85;51.52
27805;BME280;15183;51.350;11.102;2022-08-18T05:47:40;99541.28;;;23.93;51.55
27805;BME280;15183;51.350;11.102;2022-08-18T05:50:18;99563.53;;;24.07;51.26
27805;BME280;15183;51.350;11.102;2022-08-18T05:52:59;99565.13;;;24.08;51.65
27805;BME280;15183;51.350;11.102;2022-08-18T05:55:40;99570.53;;;24.17;51.36
27805;BME280;15183;51.350;11.102;2022-08-18T05:58:40;99572.25;;;24.22;51.33
27805;BME280;15183;51.350;11.102;2022-08-18T06:01:19;99576.03;;;24.30;51.42
27805;BME280;15183;51.350;11.102;2022-08-18T06:06:23;99577.59;;;24.39;51.43
27805;BME280;15183;51.350;11.102;2022-08-18T06:11:38;99592.19;;;24.56;51.14
27805;BME280;15183;51.350;11.102;2022-08-18T06:14:05;99589.78;;;24.63;51.33
27805;BME280;15183;51.350;11.102;2022-08-18T06:40:42;99597.41;;;25.97;50.58
27805;BME280;15183;51.350;11.102;2022-08-18T06:43:15;99584.16;;;26.08;50.09
27805;BME280;15183;51.350;11.102;2022-08-18T06:45:45;99605.16;;;26.33;49.79
27805;BME280;15183;51.350;11.102;2022-08-18T06:48:36;99601.81;;;26.48;50.04
27805;BME280;15183;51.350;11.102;2022-08-18T06:51:07;99608.56;;;26.67;49.57
27805;BME280;15183;51.350;11.102;2022-08-18T06:53:57;99607.09;;;26.82;49.21
27805;BME280;15183;51.350;11.102;2022-08-18T06:56:44;99599.75;;;26.95;48.93
27805;BME280;15183;51.350;11.102;2022-08-18T06:59:31;99593.84;;;27.05;49.41
27805;BME280;15183;51.350;11.102;2022-08-18T07:02:23;99590.53;;;27.12;49.21
27805;BME280;15183;51.350;11.102;2022-08-18T07:05:00;99600.59;;;27.24;49.07
27805;BME280;15183;51.350;11.102;2022-08-18T07:07:35;99614.41;;;27.31;48.96
27805;BME280;15183;51.350;11.102;2022-08-18T07:10:29;99601.38;;;27.37;48.87
27805;BME280;15183;51.350;11.102;2022-08-18T07:13:26;99604.63;;;27.42;48.52
27805;BME280;15183;51.350;11.102;2022-08-18T07:16:12;99606.75;;;27.49;48.06
27805;BME280;15183;51.350;11.102;2022-08-18T07:18:39;99613.13;;;27.53;48.01
27805;BME280;15183;51.350;11.102;2022-08-18T07:21:06;99614.00;;;27.57;48.39
27805;BME280;15183;51.350;11.102;2022-08-18T07:23:38;99615.34;;;27.64;48.09
27805;BME280;15183;51.350;11.102;2022-08-18T07:26:11;99611.94;;;27.67;47.67
27805;BME280;15183;51.350;11.102;2022-08-18T07:28:50;99614.19;;;27.65;47.40
27805;BME280;15183;51.350;11.102;2022-08-18T07:31:30;99623.03;;;27.74;48.15
27805;BME280;15183;51.350;11.102;2022-08-18T07:36:56;99632.06;;;27.78;47.48
27805;BME280;15183;51.350;11.102;2022-08-18T07:39:32;99637.28;;;27.83;47.25
27805;BME280;15183;51.350;11.102;2022-08-18T07:45:36;99649.19;;;28.07;47.38
27805;BME280;15183;51.350;11.102;2022-08-18T07:48:26;99648.25;;;28.15;47.05
27805;BME280;15183;51.350;11.102;2022-08-18T07:54:52;99646.75;;;28.34;46.67
27805;BME280;15183;51.350;11.102;2022-08-18T07:57:16;99609.47;;;28.22;46.82
27805;BME280;15183;51.350;11.102;2022-08-18T08:00:22;99635.69;;;28.43;46.45
27805;BME280;15183;51.350;11.102;2022-08-18T08:05:50;99646.59;;;28.43;46.92
27805;BME280;15183;51.350;11.102;2022-08-18T08:08:29;99579.31;;;27.99;46.45
27805;BME280;15183;51.350;11.102;2022-08-18T08:11:34;99634.53;;;28.28;46.40
27805;BME280;15183;51.350;11.102;2022-08-18T08:17:36;99613.06;;;28.10;46.66
27805;BME280;15183;51.350;11.102;2022-08-18T08:26:23;99618.53;;;27.66;47.54
27805;BME280;15183;51.350;11.102;2022-08-18T08:31:31;99622.53;;;27.56;47.77
27805;BME280;15183;51.350;11.102;2022-08-18T08:37:04;99616.56;;;27.38;47.47
27805;BME280;15183;51.350;11.102;2022-08-18T08:39:57;99622.31;;;27.49;47.83
27805;BME280;15183;51.350;11.102;2022-08-18T08:42:44;99619.25;;;27.50;48.13
27805;BME280;15183;51.350;11.102;2022-08-18T08:45:22;99625.50;;;27.51;47.74
27805;BME280;15183;51.350;11.102;2022-08-18T08:53:31;99636.38;;;27.51;47.71
27805;BME280;15183;51.350;11.102;2022-08-18T08:56:13;99635.91;;;27.49;48.03
27805;BME280;15183;51.350;11.102;2022-08-18T08:59:08;99652.03;;;27.54;47.52
27805;BME280;15183;51.350;11.102;2022-08-18T09:01:44;99663.34;;;27.56;48.17
27805;BME280;15183;51.350;11.102;2022-08-18T09:04:49;99659.13;;;27.58;47.98
27805;BME280;15183;51.350;11.102;2022-08-18T09:19:41;99645.31;;;28.08;47.54
27805;BME280;15183;51.350;11.102;2022-08-18T09:24:58;99647.72;;;28.26;47.73
27805;BME280;15183;51.350;11.102;2022-08-18T09:27:39;99635.44;;;28.32;47.57
27805;BME280;15183;51.350;11.102;2022-08-18T09:33:26;99637.53;;;28.39;46.92
27805;BME280;15183;51.350;11.102;2022-08-18T09:42:26;99675.44;;;28.44;46.86
27805;BME280;15183;51.350;11.102;2022-08-18T09:49:56;99676.84;;;28.70;46.40
27805;BME280;15183;51.350;11.102;2022-08-18T09:55:05;99682.66;;;28.84;45.50
27805;BME280;15183;51.350;11.102;2022-08-18T09:57:35;99687.06;;;28.89;46.20
27805;BME280;15183;51.350;11.102;2022-08-18T10:07:48;99677.38;;;28.92;44.98
27805;BME280;15183;51.350;11.102;2022-08-18T10:18:48;99704.31;;;28.93;45.19
27805;BME280;15183;51.350;11.102;2022-08-18T10:21:24;99696.84;;;28.90;45.30
27805;BME280;15183;51.350;11.102;2022-08-18T10:24:16;99702.56;;;28.85;45.30
27805;BME280;15183;51.350;11.102;2022-08-18T10:34:41;99710.06;;;28.59;45.73
27805;BME280;15183;51.350;11.102;2022-08-18T10:39:55;99704.00;;;28.34;46.28
27805;BME280;15183;51.350;11.102;2022-08-18T10:42:31;99707.94;;;28.21;47.27
27805;BME280;15183;51.350;11.102;2022-08-18T10:45:30;99719.06;;;27.87;48.85
27805;BME280;15183;51.350;11.102;2022-08-18T10:48:16;99722.78;;;27.54;50.68
27805;BME280;15183;51.350;11.102;2022-08-18T10:56:38;99733.72;;;26.58;53.82
27805;BME280;15183;51.350;11.102;2022-08-18T10:59:45;99717.09;;;26.26;54.61
27805;BME280;15183;51.350;11.102;2022-08-18T11:04:47;99700.31;;;25.69;55.63
27805;BME280;15183;51.350;11.102;2022-08-18T11:07:19;99703.38;;;25.46;56.03
27805;BME280;15183;51.350;11.102;2022-08-18T11:09:51;99698.94;;;25.33;56.12
27805;BME280;15183;51.350;11.102;2022-08-18T11:18:46;99697.19;;;25.07;56.56
27805;BME280;15183;51.350;11.102;2022-08-18T11:29:29;99693.88;;;24.92;57.45
27805;BME280;15183;51.350;11.102;2022-08-18T11:34:49;99701.25;;;24.92;57.88
27805;BME280;15183;51.350;11.102;2022-08-18T11:43:13;99689.16;;;24.80;59.04
27805;BME280;15183;51.350;11.102;2022-08-18T11:48:36;99689.19;;;24.63;58.18
27805;BME280;15183;51.350;11.102;2022-08-18T11:51:19;99676.63;;;24.58;59.02
27805;BME280;15183;51.350;11.102;2022-08-18T11:53:57;99659.44;;;24.54;59.08
27805;BME280;15183;51.350;11.102;2022-08-18T11:56:30;99663.78;;;24.46;59.74
27805;BME280;15183;51.350;11.102;2022-08-18T11:59:18;99658.84;;;24.39;59.50
27805;BME280;15183;51.350;11.102;2022-08-18T12:01:57;99655.84;;;24.32;59.69
27805;BME280;15183;51.350;11.102;2022-08-18T12:04:37;99645.19;;;24.27;60.25
27805;BME280;15183;51.350;11.102;2022-08-18T12:07:10;99626.75;;;24.11;60.53
27805;BME280;15183;51.350;11.102;2022-08-18T12:09:45;99636.91;;;24.14;60.50
27805;BME280;15183;51.350;11.102;2022-08-18T12:12:29;99640.09;;;24.17;60.35
27805;BME280;15183;51.350;11.102;2022-08-18T12:17:39;99646.44;;;24.38;60.98
27805;BME280;15183;51.350;11.102;2022-08-18T12:20:07;99650.66;;;24.57;60.74
27805;BME280;15183;51.350;11.102;2022-08-18T12:22:36;99638.34;;;24.68;60.46
27805;BME280;15183;51.350;11.102;2022-08-18T12:25:07;99649.78;;;24.83;60.56
27805;BME280;15183;51.350;11.102;2022-08-18T12:27:34;99625.72;;;24.81;60.67
27805;BME280;15183;51.350;11.102;2022-08-18T12:30:03;99623.84;;;25.03;59.91
27805;BME280;15183;51.350;11.102;2022-08-18T12:32:32;99602.50;;;25.02;59.96
27805;BME280;15183;51.350;11.102;2022-08-18T12:35:02;99615.31;;;25.13;59.69
27805;BME280;15183;51.350;11.102;2022-08-18T12:37:29;99623.06;;;25.24;60.24
27805;BME280;15183;51.350;11.102;2022-08-18T12:39:57;99621.16;;;25.24;60.06
27805;BME280;15183;51.350;11.102;2022-08-18T12:42:24;99621.94;;;25.25;60.06
27805;BME280;15183;51.350;11.102;2022-08-18T12:44:51;99606.97;;;25.19;59.47
27805;BME280;15183;51.350;11.102;2022-08-18T12:47:24;99605.31;;;25.05;60.18
27805;BME280;15183;51.350;11.102;2022-08-18T12:49:51;99610.13;;;24.99;59.85
27805;BME280;15183;51.350;11.102;2022-08-18T12:52:19;99602.59;;;24.84;60.19
27805;BME280;15183;51.350;11.102;2022-08-18T12:54:47;99605.09;;;24.89;60.63
27805;BME280;15183;51.350;11.102;2022-08-18T12:57:24;99602.75;;;24.88;60.77
27805;BME280;15183;51.350;11.102;2022-08-18T12:59:50;99602.84;;;24.91;60.46
27805;BME280;15183;51.350;11.102;2022-08-18T13:02:17;99591.91;;;24.88;61.05
27805;BME280;15183;51.350;11.102;2022-08-18T13:04:43;99592.16;;;24.95;60.57
27805;BME280;15183;51.350;11.102;2022-08-18T13:07:12;99575.09;;;24.94;61.02
27805;BME280;15183;51.350;11.102;2022-08-18T13:09:41;99588.75;;;25.07;60.63
27805;BME280;15183;51.350;11.102;2022-08-18T13:12:07;99589.13;;;25.18;60.94
27805;BME280;15183;51.350;11.102;2022-08-18T13:14:34;99596.94;;;25.19;61.18
27805;BME280;15183;51.350;11.102;2022-08-18T13:17:01;99583.38;;;25.19;61.01
27805;BME280;15183;51.350;11.102;2022-08-18T13:19:28;99594.75;;;25.34;60.81
27805;BME280;15183;51.350;11.102;2022-08-18T13:21:54;99587.41;;;25.34;60.56
27805;BME280;15183;51.350;11.102;2022-08-18T13:24:21;99613.34;;;25.44;60.93
27805;BME280;15183;51.350;11.102;2022-08-18T13:26:48;99613.50;;;25.48;60.38
27805;BME280;15183;51.350;11.102;2022-08-18T13:29:17;99617.59;;;25.54;60.60
27805;BME280;15183;51.350;11.102;2022-08-18T13:31:44;99623.47;;;25.56;60.77
27805;BME280;15183;51.350;11.102;2022-08-18T13:34:12;99625.88;;;25.57;60.48
27805;BME280;15183;51.350;11.102;2022-08-18T13:36:39;99602.44;;;25.53;60.34
27805;BME280;15183;51.350;11.102;2022-08-18T13:39:20;99623.53;;;25.68;60.08
27805;BME280;15183;51.350;11.102;2022-08-18T13:41:49;99597.41;;;25.64;59.98
27805;BME280;15183;51.350;11.102;2022-08-18T13:44:18;99614.06;;;25.75;59.95
27805;BME280;15183;51.350;11.102;2022-08-18T13:46:47;99605.25;;;25.78;59.86
27805;BME280;15183;51.350;11.102;2022-08-18T13:49:15;99593.19;;;25.88;59.98
27805;BME280;15183;51.350;11.102;2022-08-18T13:51:42;99608.72;;;25.99;59.89
27805;BME280;15183;51.350;11.102;2022-08-18T13:54:25;99598.09;;;26.07;60.09
27805;BME280;15183;51.350;11.102;2022-08-18T13:56:51;99589.72;;;26.12;59.30
27805;BME280;15183;51.350;11.102;2022-08-18T13:59:20;99601.22;;;26.18;59.37
27805;BME280;15183;51.350;11.102;2022-08-18T14:01:51;99604.38;;;26.20;59.54
27805;BME280;15183;51.350;11.102;2022-08-18T14:04:20;99597.22;;;26.15;59.43
27805;BME280;15183;51.350;11.102;2022-08-18T14:06:47;99591.19;;;26.09;59.53
27805;BME280;15183;51.350;11.102;2022-08-18T14:09:13;99591.19;;;26.09;59.39
27805;BME280;15183;51.350;11.102;2022-08-18T14:11:40;99577.59;;;25.97;59.39
27805;BME280;15183;51.350;11.102;2022-08-18T14:14:06;99583.63;;;26.03;59.01
27805;BME280;15183;51.350;11.102;2022-08-18T14:16:33;99561.97;;;25.94;59.28
27805;BME280;15183;51.350;11.102;2022-08-18T14:19:00;99557.22;;;25.91;59.06
27805;BME280;15183;51.350;11.102;2022-08-18T14:21:51;99561.06;;;25.90;59.14
27805;BME280;15183;51.350;11.102;2022-08-18T14:24:39;99575.34;;;25.99;59.40
27805;BME280;15183;51.350;11.102;2022-08-18T14:27:37;99577.97;;;26.08;59.09
27805;BME280;15183;51.350;11.102;2022-08-18T14:30:07;99584.25;;;26.21;58.89
27805;BME280;15183;51.350;11.102;2022-08-18T14:32:34;99578.69;;;26.29;58.96
27805;BME280;15183;51.350;11.102;2022-08-18T14:35:04;99585.38;;;26.44;58.64
27805;BME280;15183;51.350;11.102;2022-08-18T14:37:31;99568.84;;;26.50;58.44
27805;BME280;15183;51.350;11.102;2022-08-18T14:39:58;99563.19;;;26.67;58.48
27805;BME280;15183;51.350;11.102;2022-08-18T14:42:25;99573.63;;;26.90;58.56
27805;BME280;15183;51.350;11.102;2022-08-18T14:44:51;99565.06;;;27.04;58.10
27805;BME280;15183;51.350;11.102;2022-08-18T14:47:18;99565.28;;;27.11;58.00
27805;BME280;15183;51.350;11.102;2022-08-18T14:49:44;99563.09;;;27.17;57.61
27805;BME280;15183;51.350;11.102;2022-08-18T14:52:12;99556.72;;;27.25;57.71
27805;BME280;15183;51.350;11.102;2022-08-18T14:54:38;99562.56;;;27.40;57.21
27805;BME280;15183;51.350;11.102;2022-08-18T14:57:05;99539.31;;;27.42;57.46
27805;BME280;15183;51.350;11.102;2022-08-18T14:59:34;99526.03;;;27.53;57.59
27805;BME280;15183;51.350;11.102;2022-08-18T15:02:01;99526.34;;;27.80;56.76
27805;BME280;15183;51.350;11.102;2022-08-18T15:04:27;99520.19;;;27.99;56.86
27805;BME280;15183;51.350;11.102;2022-08-18T15:06:54;99509.47;;;28.07;56.96
27805;BME280;15183;51.350;11.102;2022-08-18T15:09:20;99500.34;;;28.15;56.49
27805;BME280;15183;51.350;11.102;2022-08-18T15:11:47;99499.44;;;28.27;55.81
27805;BME280;15183;51.350;11.102;2022-08-18T15:14:15;99497.88;;;28.26;56.08
27805;BME280;15183;51.350;11.102;2022-08-18T15:16:43;99512.47;;;28.34;56.33
27805;BME280;15183;51.350;11.102;2022-08-18T15:19:09;99516.75;;;28.35;55.88
27805;BME280;15183;51.350;11.102;2022-08-18T15:21:35;99505.94;;;28.38;56.22
27805;BME280;15183;51.350;11.102;2022-08-18T15:24:20;99497.75;;;28.38;55.75
27805;BME280;15183;51.350;11.102;2022-08-18T15:27:06;99517.16;;;28.53;55.36
27805;BME280;15183;51.350;11.102;2022-08-18T15:29:33;99500.81;;;28.53;55.62
27805;BME280;15183;51.350;11.102;2022-08-18T15:32:00;99501.53;;;28.69;54.82
27805;BME280;15183;51.350;11.102;2022-08-18T15:34:28;99516.09;;;28.93;54.97
27805;BME280;15183;51.350;11.102;2022-08-18T15:36:55;99523.84;;;29.11;54.45
27805;BME280;15183;51.350;11.102;2022-08-18T15:39:23;99517.44;;;29.23;54.63
27805;BME280;15183;51.350;11.102;2022-08-18T15:41:49;99530.50;;;29.33;54.45
27805;BME280;15183;51.350;11.102;2022-08-18T15:44:18;99525.66;;;29.42;54.36
27805;BME280;15183;51.350;11.102;2022-08-18T15:46:46;99522.97;;;29.46;53.49
27805;BME280;15183;51.350;11.102;2022-08-18T15:49:13;99519.94;;;29.51;53.83
27805;BME280;15183;51.350;11.102;2022-08-18T15:51:41;99517.59;;;29.50;53.17
27805;BME280;15183;51.350;11.102;2022-08-18T15:54:08;99531.28;;;29.53;52.93
27805;BME280;15183;51.350;11.102;2022-08-18T15:56:35;99522.56;;;29.44;52.91
27805;BME280;15183;51.350;11.102;2022-08-18T15:59:03;99531.16;;;29.46;53.30
27805;BME280;15183;51.350;11.102;2022-08-18T16:01:34;99525.66;;;29.42;53.22
27805;BME280;15183;51.350;11.102;2022-08-18T16:04:06;99519.25;;;29.35;53.21